createdAt,value
2023-05-24T00:00:33.462Z,14.03
2023-05-24T00:03:03.116Z,14.03
2023-05-24T00:05:32.140Z,14.02
2023-05-24T00:08:00.253Z,14.00
2023-05-24T00:10:27.891Z,13.95
2023-05-24T00:12:55.578Z,13.93
2023-05-24T00:15:23.271Z,13.93
2023-05-24T00:17:51.879Z,13.97
2023-05-24T00:20:21.208Z,13.98
2023-05-24T00:22:49.204Z,13.96
2023-05-24T00:25:16.890Z,13.91
2023-05-24T00:27:44.558Z,13.91
2023-05-24T00:30:12.731Z,13.93
2023-05-24T00:32:40.457Z,13.91
2023-05-24T00:35:08.514Z,13.93
2023-05-24T00:37:37.636Z,13.97
2023-05-24T00:40:06.836Z,13.99
2023-05-24T00:42:34.534Z,13.96
2023-05-24T00:45:02.292Z,13.94
2023-05-24T00:47:29.920Z,13.91
2023-05-24T00:49:57.683Z,13.86
2023-05-24T00:52:25.517Z,13.81
2023-05-24T00:54:53.254Z,13.74
2023-05-24T00:57:21.906Z,13.67
2023-05-24T00:59:49.553Z,13.58
2023-05-24T01:02:18.707Z,13.51
2023-05-24T01:04:49.244Z,13.44
2023-05-24T01:07:50.731Z,13.39
2023-05-24T01:10:36.972Z,13.32
2023-05-24T01:13:29.712Z,13.22
2023-05-24T01:16:04.344Z,13.18
2023-05-24T01:18:33.462Z,13.18
2023-05-24T01:21:10.730Z,13.15
2023-05-24T01:23:50.618Z,13.10
2023-05-24T01:26:27.775Z,13.05
2023-05-24T01:28:55.650Z,13.05
2023-05-24T01:31:23.360Z,13.06
2023-05-24T01:33:51.217Z,13.04
2023-05-24T01:36:21.416Z,13.04
2023-05-24T01:38:49.069Z,13.07
2023-05-24T01:41:41.401Z,13.10
2023-05-24T01:44:30.863Z,13.14
2023-05-24T01:47:18.818Z,13.16
2023-05-24T01:49:54.308Z,13.16
2023-05-24T01:52:23.883Z,13.18
2023-05-24T01:54:52.453Z,13.19
2023-05-24T01:57:21.650Z,13.19
2023-05-24T01:59:50.410Z,13.17
2023-05-24T02:02:18.104Z,13.15
2023-05-24T02:04:47.311Z,13.16
2023-05-24T02:07:14.945Z,13.16
2023-05-24T02:09:42.906Z,13.17
2023-05-24T02:12:11.522Z,13.16
2023-05-24T02:14:42.999Z,13.14
2023-05-24T02:17:10.753Z,13.13
2023-05-24T02:19:38.598Z,13.17
2023-05-24T02:22:07.556Z,13.19
2023-05-24T02:24:35.196Z,13.22
2023-05-24T02:27:03.119Z,13.27
2023-05-24T02:29:30.899Z,13.33
2023-05-24T02:31:58.558Z,13.37
2023-05-24T02:34:26.230Z,13.42
2023-05-24T02:36:54.598Z,13.47
2023-05-24T02:39:22.275Z,13.55
2023-05-24T02:41:49.883Z,13.64
2023-05-24T02:44:17.609Z,13.71
2023-05-24T02:46:45.332Z,13.78
2023-05-24T02:49:13.169Z,13.86
2023-05-24T02:51:40.821Z,13.92
2023-05-24T02:54:08.557Z,14.00
2023-05-24T02:56:37.734Z,14.08
2023-05-24T02:59:05.447Z,14.16
2023-05-24T03:01:34.478Z,14.22
2023-05-24T03:04:02.678Z,14.26
2023-05-24T03:06:31.283Z,14.31
2023-05-24T03:08:59.480Z,14.39
2023-05-24T03:11:27.435Z,14.46
2023-05-24T03:13:55.126Z,14.54
2023-05-24T03:16:23.117Z,14.63
2023-05-24T03:18:51.217Z,14.67
2023-05-24T03:21:21.090Z,14.73
2023-05-24T03:23:49.336Z,14.77
2023-05-24T03:26:18.932Z,14.80
2023-05-24T03:28:47.930Z,14.91
2023-05-24T03:31:16.935Z,15.12
2023-05-24T03:33:45.018Z,15.40
2023-05-24T03:36:12.879Z,15.83
2023-05-24T03:38:40.694Z,16.31
2023-05-24T03:41:08.383Z,16.69
2023-05-24T03:43:36.088Z,16.89
2023-05-24T03:46:07.345Z,16.99
2023-05-24T03:48:35.087Z,17.06
2023-05-24T03:51:02.793Z,17.17
2023-05-24T03:53:30.519Z,17.23
2023-05-24T03:55:58.130Z,17.37
2023-05-24T03:58:25.861Z,17.73
2023-05-24T04:00:53.685Z,18.31
2023-05-24T04:03:21.601Z,19.03
2023-05-24T04:05:49.416Z,19.69
2023-05-24T04:08:17.028Z,20.33
2023-05-24T04:10:45.027Z,20.93
2023-05-24T04:13:12.996Z,21.43
2023-05-24T04:15:41.051Z,21.85
2023-05-24T04:18:09.038Z,22.25
2023-05-24T04:20:36.877Z,22.65
2023-05-24T04:23:04.529Z,23.01
2023-05-24T04:25:33.646Z,23.35
2023-05-24T04:28:04.153Z,23.63
2023-05-24T04:30:32.948Z,23.83
2023-05-24T04:33:00.827Z,24.03
2023-05-24T04:35:30.368Z,24.15
2023-05-24T04:37:59.981Z,24.29
2023-05-24T04:40:27.613Z,24.43
2023-05-24T04:42:55.312Z,24.63
2023-05-24T04:45:23.099Z,24.87
2023-05-24T04:47:50.946Z,25.05
2023-05-24T04:50:18.718Z,25.11
2023-05-24T04:52:46.336Z,25.18
2023-05-24T04:55:13.969Z,25.21
2023-05-24T04:57:41.583Z,25.29
2023-05-24T05:00:10.435Z,25.45
2023-05-24T05:02:38.203Z,25.61
2023-05-24T05:05:06.642Z,25.61
2023-05-24T05:07:34.273Z,25.66
2023-05-24T05:10:01.918Z,25.70
2023-05-24T05:12:29.724Z,25.71
2023-05-24T05:14:57.426Z,25.71
2023-05-24T05:17:25.139Z,25.67
2023-05-24T05:19:52.820Z,25.58
2023-05-24T05:22:20.696Z,25.48
2023-05-24T05:24:48.348Z,25.35
2023-05-24T05:27:16.023Z,25.25
2023-05-24T05:29:43.676Z,25.19
2023-05-24T05:32:11.407Z,25.05
2023-05-24T05:34:39.103Z,24.86
2023-05-24T05:37:07.140Z,24.72
2023-05-24T05:39:35.488Z,24.52
2023-05-24T05:42:03.529Z,24.44
2023-05-24T05:44:31.263Z,24.47
2023-05-24T05:46:58.886Z,24.54
2023-05-24T05:49:26.503Z,24.61
2023-05-24T05:51:54.959Z,24.57
2023-05-24T05:54:22.756Z,24.47
2023-05-24T05:56:51.357Z,24.38
2023-05-24T05:59:19.847Z,24.30
2023-05-24T06:01:49.295Z,24.20
2023-05-24T06:04:17.398Z,24.10
2023-05-24T06:06:51.425Z,24.04
2023-05-24T06:09:19.720Z,24.04
2023-05-24T06:11:47.472Z,24.03
2023-05-24T06:14:20.022Z,24.01
2023-05-24T06:16:48.199Z,23.98
2023-05-24T06:19:16.863Z,23.91
2023-05-24T06:21:48.525Z,23.81
2023-05-24T06:24:20.858Z,23.70
2023-05-24T06:26:50.071Z,23.52
2023-05-24T06:29:20.537Z,23.34
2023-05-24T06:31:49.365Z,23.09
2023-05-24T06:34:18.008Z,22.87
2023-05-24T06:36:47.610Z,22.72
2023-05-24T06:39:15.445Z,22.66
2023-05-24T06:41:43.708Z,22.70
2023-05-24T06:44:11.445Z,22.84
2023-05-24T06:46:39.714Z,22.97
2023-05-24T06:49:07.586Z,23.10
2023-05-24T06:51:35.238Z,23.17
2023-05-24T06:54:02.916Z,23.13
2023-05-24T06:56:30.620Z,22.96
2023-05-24T06:58:59.561Z,22.66
2023-05-24T07:01:27.938Z,22.40
2023-05-24T07:03:55.622Z,22.27
2023-05-24T07:06:23.367Z,22.07
2023-05-24T07:08:51.175Z,21.90
2023-05-24T07:11:18.887Z,21.76
2023-05-24T07:13:46.666Z,21.67
2023-05-24T07:16:14.316Z,21.58
2023-05-24T07:18:42.234Z,21.53
2023-05-24T07:21:09.915Z,21.52
2023-05-24T07:23:38.148Z,21.49
2023-05-24T07:26:06.188Z,21.44
2023-05-24T07:28:34.764Z,21.31
2023-05-24T07:31:02.769Z,21.19
2023-05-24T07:33:30.595Z,21.10
2023-05-24T07:35:58.415Z,21.10
2023-05-24T07:38:26.654Z,21.14
2023-05-24T07:40:54.358Z,21.18
2023-05-24T07:43:22.053Z,21.22
2023-05-24T07:45:49.675Z,21.42
2023-05-24T07:48:17.320Z,21.76
2023-05-24T07:50:48.935Z,22.10
2023-05-24T07:53:16.642Z,22.42
2023-05-24T07:55:47.260Z,22.85
2023-05-24T07:58:14.857Z,23.32
2023-05-24T08:00:42.463Z,23.69
2023-05-24T08:03:10.272Z,23.90
2023-05-24T08:05:37.972Z,24.01
2023-05-24T08:08:05.681Z,24.31
2023-05-24T08:10:33.317Z,24.77
2023-05-24T08:13:01.307Z,25.03
2023-05-24T08:15:28.942Z,25.02
2023-05-24T08:17:57.016Z,25.09
2023-05-24T08:20:24.784Z,25.19
2023-05-24T08:22:52.545Z,25.31
2023-05-24T08:25:21.215Z,25.63
2023-05-24T08:27:49.101Z,25.81
2023-05-24T08:30:16.787Z,25.69
2023-05-24T08:32:44.537Z,25.37
2023-05-24T08:37:46.518Z,25.11
2023-05-24T08:40:14.460Z,24.96
2023-05-24T08:42:42.281Z,24.61
2023-05-24T08:45:12.293Z,24.49
2023-05-24T08:47:40.404Z,24.64
2023-05-24T08:50:08.936Z,24.82
2023-05-24T08:52:36.987Z,25.02
2023-05-24T08:55:05.752Z,25.13
2023-05-24T08:57:35.112Z,25.25
2023-05-24T09:00:02.942Z,25.24
2023-05-24T09:02:30.780Z,25.13
2023-05-24T09:04:58.428Z,25.03
2023-05-24T09:07:26.107Z,24.99
2023-05-24T09:09:59.509Z,25.08
2023-05-24T09:12:36.558Z,25.24
2023-05-24T09:15:07.939Z,25.19
2023-05-24T09:17:37.049Z,25.02
2023-05-24T09:20:11.232Z,24.76
2023-05-24T09:22:42.266Z,24.53
2023-05-24T09:25:11.639Z,24.38
2023-05-24T09:27:39.573Z,24.37
2023-05-24T09:30:10.597Z,24.38
2023-05-24T09:32:38.706Z,24.42
2023-05-24T09:35:10.876Z,24.53
2023-05-24T09:37:39.199Z,24.61
2023-05-24T09:40:09.354Z,24.65
2023-05-24T09:42:38.432Z,24.67
2023-05-24T09:45:10.898Z,24.70
2023-05-24T09:47:42.090Z,24.83
2023-05-24T09:50:14.320Z,25.13
2023-05-24T09:52:42.302Z,25.34
2023-05-24T09:55:17.395Z,25.42
2023-05-24T09:57:45.781Z,25.65
2023-05-24T10:00:17.859Z,25.79
2023-05-24T10:02:53.480Z,25.81
2023-05-24T10:05:21.890Z,25.74
2023-05-24T10:07:49.633Z,25.55
2023-05-24T10:10:17.351Z,25.42
2023-05-24T10:12:47.140Z,25.43
2023-05-24T10:15:14.954Z,25.49
2023-05-24T10:17:42.696Z,25.63
2023-05-24T10:20:12.882Z,25.89
2023-05-24T10:22:44.764Z,26.20
2023-05-24T10:25:19.002Z,26.51
2023-05-24T10:27:46.974Z,26.80
2023-05-24T10:30:23.795Z,27.00
2023-05-24T10:32:52.239Z,27.07
2023-05-24T10:35:20.577Z,27.03
2023-05-24T10:37:48.400Z,26.80
2023-05-24T10:40:25.620Z,26.54
2023-05-24T10:42:56.351Z,26.20
2023-05-24T10:45:37.184Z,25.80
2023-05-24T10:48:28.228Z,25.38
2023-05-24T10:50:56.544Z,25.01
2023-05-24T10:53:26.728Z,24.62
2023-05-24T10:56:07.114Z,24.23
2023-05-24T10:58:35.611Z,23.93
2023-05-24T11:01:03.852Z,23.62
2023-05-24T11:03:35.140Z,23.26
2023-05-24T11:06:03.291Z,22.93
2023-05-24T11:08:35.922Z,22.70
2023-05-24T11:13:45.241Z,22.32
2023-05-24T11:16:38.127Z,22.25
2023-05-24T11:19:20.025Z,22.17
2023-05-24T11:21:49.020Z,22.04
2023-05-24T11:24:17.956Z,21.88
2023-05-24T11:26:45.942Z,21.69
2023-05-24T11:29:17.918Z,21.45
2023-05-24T11:31:53.215Z,21.15
2023-05-24T11:34:21.651Z,20.86
2023-05-24T11:36:49.376Z,20.62
2023-05-24T11:39:17.098Z,20.41
2023-05-24T11:41:44.845Z,20.27
2023-05-24T11:44:12.568Z,20.18
2023-05-24T11:46:40.360Z,20.11
2023-05-24T11:51:17.480Z,19.97
2023-05-24T11:53:46.193Z,19.93
2023-05-24T11:56:13.910Z,19.98
2023-05-24T11:59:07.860Z,20.13
2023-05-24T12:01:35.648Z,20.30
2023-05-24T12:04:03.542Z,20.38
2023-05-24T12:06:38.597Z,20.46
2023-05-24T12:09:09.479Z,20.52
2023-05-24T12:11:46.686Z,20.57
2023-05-24T12:14:19.736Z,20.64
2023-05-24T12:16:47.785Z,20.64
2023-05-24T12:19:31.834Z,20.59
2023-05-24T12:22:08.387Z,20.49
2023-05-24T12:24:37.750Z,20.42
2023-05-24T12:27:10.044Z,20.33
2023-05-24T12:29:40.673Z,20.25
2023-05-24T12:32:14.021Z,20.17
2023-05-24T12:34:43.546Z,20.10
2023-05-24T12:37:12.956Z,20.03
2023-05-24T12:39:43.953Z,19.98
2023-05-24T12:42:16.398Z,19.94
2023-05-24T12:44:45.533Z,19.92
2023-05-24T12:47:13.504Z,19.91
2023-05-24T12:49:41.384Z,19.94
2023-05-24T12:52:09.425Z,19.95
2023-05-24T12:54:37.205Z,19.96
2023-05-24T12:57:05.448Z,20.03
2023-05-24T12:59:33.703Z,20.12
2023-05-24T13:02:02.175Z,20.24
2023-05-24T13:04:31.981Z,20.35
2023-05-24T13:07:00.581Z,20.46
2023-05-24T13:09:28.354Z,20.55
2023-05-24T13:11:56.113Z,20.65
2023-05-24T13:14:23.904Z,20.74
2023-05-24T13:16:51.735Z,20.83
2023-05-24T13:19:19.573Z,20.94
2023-05-24T13:21:47.331Z,21.05
2023-05-24T13:24:16.357Z,21.11
2023-05-24T13:26:45.212Z,21.16
2023-05-24T13:31:44.225Z,21.32
2023-05-24T13:34:12.399Z,21.38
2023-05-24T13:36:40.065Z,21.40
2023-05-24T13:39:15.027Z,21.35
2023-05-24T13:41:44.773Z,21.31
2023-05-24T13:44:13.513Z,21.30
2023-05-24T13:46:41.822Z,21.37
2023-05-24T13:49:10.099Z,21.44
2023-05-24T13:51:38.235Z,21.52
2023-05-24T13:54:07.913Z,21.60
2023-05-24T13:56:36.096Z,21.62
2023-05-24T13:59:04.857Z,21.56
2023-05-24T14:01:33.835Z,21.49
2023-05-24T14:04:02.422Z,21.49
2023-05-24T14:06:30.588Z,21.51
2023-05-24T14:08:58.664Z,21.49
2023-05-24T14:11:27.948Z,21.47
2023-05-24T14:14:43.651Z,21.42
2023-05-24T14:16:43.502Z,21.28
2023-05-24T14:19:11.241Z,21.20
2023-05-24T15:36:10.356Z,20.35
2023-05-24T15:38:39.045Z,20.36
2023-05-24T15:41:06.790Z,20.38
2023-05-24T15:43:34.477Z,20.42
2023-05-24T15:46:02.117Z,20.44
2023-05-24T15:48:29.764Z,20.45
2023-05-24T15:51:53.520Z,20.40
2023-05-24T15:53:45.263Z,20.32
2023-05-24T15:56:13.029Z,20.26
2023-05-24T15:58:40.882Z,20.18
2023-05-24T16:01:08.609Z,20.13
2023-05-24T16:03:38.411Z,20.13
2023-05-24T16:06:07.252Z,20.14
2023-05-24T16:08:35.030Z,20.18
2023-05-24T16:11:08.324Z,20.24
2023-05-24T16:13:36.543Z,20.28
2023-05-24T16:16:04.385Z,20.30
2023-05-24T16:18:34.875Z,20.29
2023-05-24T16:21:02.790Z,20.23
2023-05-24T16:23:30.579Z,20.17
2023-05-24T16:25:58.409Z,20.12
2023-05-24T16:28:26.168Z,20.09
2023-05-24T16:30:57.657Z,20.04
2023-05-24T16:33:25.617Z,20.00
2023-05-24T16:35:56.380Z,19.95
2023-05-24T16:38:25.088Z,19.92
2023-05-24T16:40:53.940Z,19.90
2023-05-24T16:43:22.003Z,19.85
2023-05-24T16:45:49.997Z,19.79
2023-05-24T16:48:21.661Z,19.72
2023-05-24T16:50:51.839Z,19.65
2023-05-24T16:53:23.177Z,19.62
2023-05-24T16:55:54.493Z,19.58
2023-05-24T16:58:22.917Z,19.53
2023-05-24T17:00:50.927Z,19.50
2023-05-24T17:03:22.286Z,19.48
2023-05-24T17:05:50.561Z,19.45
2023-05-24T17:08:19.155Z,19.40
2023-05-24T17:10:49.425Z,19.38
2023-05-24T17:13:17.126Z,19.36
2023-05-24T17:15:45.463Z,19.34
2023-05-24T17:18:13.399Z,19.31
2023-05-24T17:20:42.241Z,19.25
2023-05-24T17:23:10.266Z,19.19
2023-05-24T17:25:38.007Z,19.09
2023-05-24T17:28:05.753Z,19.01
2023-05-24T17:30:33.542Z,18.93
2023-05-24T17:33:01.363Z,18.87
2023-05-24T17:35:29.039Z,18.82
2023-05-24T17:37:56.889Z,18.78
2023-05-24T17:40:24.648Z,18.75
2023-05-24T17:42:52.446Z,18.72
2023-05-24T17:45:20.161Z,18.69
2023-05-24T17:47:47.885Z,18.66
2023-05-24T17:50:15.755Z,18.60
2023-05-24T17:52:43.474Z,18.54
2023-05-24T17:55:11.158Z,18.48
2023-05-24T17:57:40.254Z,18.42
2023-05-24T18:00:08.636Z,18.36
2023-05-24T18:02:46.684Z,18.28
2023-05-24T18:05:16.164Z,18.24
2023-05-24T18:07:43.925Z,18.23
2023-05-24T18:10:12.501Z,18.22
2023-05-24T18:12:40.503Z,18.20
2023-05-24T18:15:08.787Z,18.18
2023-05-24T18:17:36.697Z,18.19
2023-05-24T18:20:05.084Z,18.20
2023-05-24T18:22:32.833Z,18.19
2023-05-24T18:25:00.599Z,18.18
2023-05-24T18:27:28.346Z,18.17
2023-05-24T18:29:56.671Z,18.15
2023-05-24T18:32:24.495Z,18.14
2023-05-24T18:34:52.248Z,18.14
2023-05-24T18:37:23.387Z,18.13
2023-05-24T18:39:51.236Z,18.09
2023-05-24T18:42:18.891Z,18.06
2023-05-24T18:44:47.387Z,18.03
2023-05-24T18:47:15.253Z,17.99
2023-05-24T18:49:43.082Z,17.95
2023-05-24T18:52:10.763Z,17.91
2023-05-24T18:54:39.747Z,17.86
2023-05-24T18:57:07.444Z,17.82
2023-05-24T18:59:37.433Z,17.78
2023-05-24T19:02:06.384Z,17.75
2023-05-24T19:04:34.112Z,17.73
2023-05-24T19:07:01.849Z,17.70
2023-05-24T19:09:29.557Z,17.68
2023-05-24T19:11:59.475Z,17.67
2023-05-24T19:14:27.577Z,17.66
2023-05-24T19:16:55.466Z,17.66
2023-05-24T19:19:23.322Z,17.66
2023-05-24T19:21:51.042Z,17.64
2023-05-24T19:24:18.711Z,17.61
2023-05-24T19:26:46.426Z,17.58
2023-05-24T19:29:14.139Z,17.56
2023-05-24T19:31:41.985Z,17.55
2023-05-24T19:34:09.666Z,17.52
2023-05-24T19:36:37.508Z,17.49
2023-05-24T19:39:05.263Z,17.47
2023-05-24T19:41:33.019Z,17.41
2023-05-24T19:44:00.780Z,17.37
2023-05-24T19:46:28.691Z,17.33
2023-05-24T19:48:56.445Z,17.28
2023-05-24T19:51:24.187Z,17.24
2023-05-24T19:53:51.867Z,17.20
2023-05-24T19:56:20.998Z,17.16
2023-05-24T19:58:48.726Z,17.13
2023-05-24T20:01:16.386Z,17.09
2023-05-24T20:03:48.526Z,17.06
2023-05-24T20:06:16.770Z,17.03
2023-05-24T20:08:44.700Z,16.99
2023-05-24T20:11:12.632Z,16.98
2023-05-24T20:13:40.533Z,16.96
2023-05-24T20:16:08.174Z,16.92
2023-05-24T20:18:35.845Z,16.90
2023-05-24T20:21:03.604Z,16.88
2023-05-24T20:23:32.021Z,16.86
2023-05-24T20:25:59.749Z,16.86
2023-05-24T20:28:31.403Z,16.88
2023-05-24T20:30:59.786Z,16.91
2023-05-24T20:33:27.509Z,16.92
2023-05-24T20:35:55.224Z,16.92
2023-05-24T20:38:23.888Z,16.92
2023-05-24T20:40:51.553Z,16.92
2023-05-24T20:43:19.179Z,16.92
2023-05-24T20:45:47.424Z,16.91
2023-05-24T20:48:15.279Z,16.90
2023-05-24T20:50:42.984Z,16.88
2023-05-24T20:53:10.686Z,16.84
2023-05-24T20:55:38.555Z,16.79
2023-05-24T20:58:06.288Z,16.77
2023-05-24T21:00:33.941Z,16.79
2023-05-24T21:03:01.718Z,16.81
2023-05-24T21:05:29.564Z,16.84
2023-05-24T21:07:57.239Z,16.84
2023-05-24T21:10:28.053Z,16.85
2023-05-24T21:12:55.882Z,16.86
2023-05-24T21:15:23.554Z,16.88
2023-05-24T21:17:51.962Z,16.87
2023-05-24T21:20:19.756Z,16.86
2023-05-24T21:22:47.617Z,16.86
2023-05-24T21:25:15.479Z,16.86
2023-05-24T21:27:43.143Z,16.86
2023-05-24T21:30:11.383Z,16.83
2023-05-24T21:42:24.361Z,16.60
2023-05-24T21:44:52.121Z,16.55
2023-05-24T21:47:19.857Z,16.50
2023-05-24T21:49:47.621Z,16.47
2023-05-24T21:52:15.330Z,16.42
2023-05-24T21:54:42.980Z,16.35
2023-05-24T21:57:10.656Z,16.25
2023-05-24T21:59:38.301Z,16.12
2023-05-24T22:02:06.023Z,15.99
2023-05-24T22:04:33.745Z,15.94
2023-05-24T22:07:01.383Z,15.93
2023-05-24T22:09:29.072Z,15.93
2023-05-24T22:11:56.718Z,15.93
2023-05-24T22:14:24.503Z,15.93
2023-05-24T22:16:52.258Z,15.92
2023-05-24T22:19:35.770Z,15.89
2023-05-24T22:22:08.476Z,15.83
2023-05-24T22:24:36.411Z,15.80
2023-05-24T22:27:04.971Z,15.81
2023-05-24T22:29:32.643Z,15.82
2023-05-24T22:32:00.451Z,15.84
2023-05-24T22:34:28.878Z,15.83
2023-05-24T22:36:57.836Z,15.82
2023-05-24T22:39:26.043Z,15.84
2023-05-24T22:41:53.693Z,15.88
2023-05-24T22:44:21.317Z,15.87
2023-05-24T22:46:55.027Z,15.88
2023-05-24T22:49:22.876Z,15.86
2023-05-24T22:51:51.167Z,15.84
2023-05-24T22:54:19.236Z,15.82
2023-05-24T22:56:46.955Z,15.80
2023-05-24T22:59:14.789Z,15.82
2023-05-24T23:01:44.935Z,15.81
2023-05-24T23:04:21.239Z,15.77
2023-05-24T23:06:53.408Z,15.73
2023-05-24T23:09:35.070Z,15.67
2023-05-24T23:12:09.489Z,15.56
2023-05-24T23:14:38.653Z,15.46
2023-05-24T23:17:07.003Z,15.41
2023-05-24T23:19:34.728Z,15.34
2023-05-24T23:22:03.692Z,15.33
2023-05-24T23:24:31.647Z,15.32
2023-05-24T23:26:59.360Z,15.32
2023-05-24T23:29:27.058Z,15.32
2023-05-24T23:31:54.742Z,15.33
2023-05-24T23:34:22.467Z,15.32
2023-05-24T23:36:50.130Z,15.28
2023-05-24T23:39:17.840Z,15.24
2023-05-24T23:41:45.737Z,15.22
2023-05-24T23:44:13.362Z,15.19
2023-05-24T23:46:42.298Z,15.15
2023-05-24T23:49:10.057Z,15.14
2023-05-24T23:51:37.927Z,15.16
2023-05-24T23:54:05.768Z,15.19
2023-05-24T23:56:33.460Z,15.21
2023-05-24T23:59:01.629Z,15.21
